sensor_id;sensor_type;location;lat;lon;timestamp;temperature;humidity
74364;DHT22;62797;49.740;10.154;2022-09-09T00:00:26;15.40;48.10
74364;DHT22;62797;49.740;10.154;2022-09-09T00:05:50;15.40;48.30
74364;DHT22;62797;49.740;10.154;2022-09-09T00:08:27;15.40;48.10
74364;DHT22;62797;49.740;10.154;2022-09-09T00:10:59;15.30;47.80
74364;DHT22;62797;49.740;10.154;2022-09-09T00:13:46;15.30;47.60
74364;DHT22;62797;49.740;10.154;2022-09-09T00:16:21;15.20;48.30
74364;DHT22;62797;49.740;10.154;2022-09-09T00:19:07;15.20;47.90
74364;DHT22;62797;49.740;10.154;2022-09-09T00:21:46;15.20;48.30
74364;DHT22;62797;49.740;10.154;2022-09-09T00:24:26;15.20;48.50
74364;DHT22;62797;49.740;10.154;2022-09-09T00:26:57;15.20;48.30
74364;DHT22;62797;49.740;10.154;2022-09-09T00:32:12;15.20;48.20
74364;DHT22;62797;49.740;10.154;2022-09-09T00:34:49;15.20;49.20
74364;DHT22;62797;49.740;10.154;2022-09-09T00:37:16;15.20;48.90
74364;DHT22;62797;49.740;10.154;2022-09-09T00:39:47;15.20;49.10
74364;DHT22;62797;49.740;10.154;2022-09-09T00:42:24;15.30;48.10
74364;DHT22;62797;49.740;10.154;2022-09-09T00:44:51;15.20;48.00
74364;DHT22;62797;49.740;10.154;2022-09-09T00:50:33;15.20;48.00
74364;DHT22;62797;49.740;10.154;2022-09-09T00:53:24;15.30;47.90
74364;DHT22;62797;49.740;10.154;2022-09-09T00:58:30;15.30;52.40
74364;DHT22;62797;49.740;10.154;2022-09-09T01:01:16;15.30;54.30
74364;DHT22;62797;49.740;10.154;2022-09-09T01:03:56;15.30;59.20
74364;DHT22;62797;49.740;10.154;2022-09-09T01:06:34;15.20;60.30
74364;DHT22;62797;49.740;10.154;2022-09-09T01:09:25;15.10;62.50
74364;DHT22;62797;49.740;10.154;2022-09-09T01:12:01;15.10;64.10
74364;DHT22;62797;49.740;10.154;2022-09-09T01:17:13;15.20;64.20
74364;DHT22;62797;49.740;10.154;2022-09-09T01:28:25;15.40;62.60
74364;DHT22;62797;49.740;10.154;2022-09-09T01:30:53;15.40;61.40
74364;DHT22;62797;49.740;10.154;2022-09-09T01:33:19;15.40;62.10
74364;DHT22;62797;49.740;10.154;2022-09-09T01:35:59;15.40;60.20
74364;DHT22;62797;49.740;10.154;2022-09-09T01:38:26;15.40;60.10
74364;DHT22;62797;49.740;10.154;2022-09-09T01:40:53;15.40;61.40
74364;DHT22;62797;49.740;10.154;2022-09-09T01:43:23;15.50;60.00
74364;DHT22;62797;49.740;10.154;2022-09-09T01:45:53;15.50;60.50
74364;DHT22;62797;49.740;10.154;2022-09-09T01:48:21;15.50;60.40
74364;DHT22;62797;49.740;10.154;2022-09-09T01:50:47;15.60;59.00
74364;DHT22;62797;49.740;10.154;2022-09-09T01:53:14;15.50;58.20
74364;DHT22;62797;49.740;10.154;2022-09-09T01:56:18;15.50;58.30
74364;DHT22;62797;49.740;10.154;2022-09-09T01:58:54;15.50;57.90
74364;DHT22;62797;49.740;10.154;2022-09-09T02:07:15;15.70;57.50
74364;DHT22;62797;49.740;10.154;2022-09-09T02:09:47;15.70;57.10
74364;DHT22;62797;49.740;10.154;2022-09-09T02:12:18;15.70;56.40
74364;DHT22;62797;49.740;10.154;2022-09-09T02:15:00;15.70;55.70
74364;DHT22;62797;49.740;10.154;2022-09-09T02:17:30;15.70;55.80
74364;DHT22;62797;49.740;10.154;2022-09-09T02:20:04;15.70;56.90
74364;DHT22;62797;49.740;10.154;2022-09-09T02:22:33;15.80;55.60
74364;DHT22;62797;49.740;10.154;2022-09-09T02:25:00;15.80;56.20
74364;DHT22;62797;49.740;10.154;2022-09-09T02:27:26;15.80;58.50
74364;DHT22;62797;49.740;10.154;2022-09-09T02:29:55;15.90;57.00
74364;DHT22;62797;49.740;10.154;2022-09-09T02:32:23;15.80;57.50
74364;DHT22;62797;49.740;10.154;2022-09-09T02:35:04;15.90;57.10
74364;DHT22;62797;49.740;10.154;2022-09-09T02:37:35;15.90;56.90
74364;DHT22;62797;49.740;10.154;2022-09-09T02:40:04;15.90;57.70
74364;DHT22;62797;49.740;10.154;2022-09-09T02:42:30;15.90;57.20
74364;DHT22;62797;49.740;10.154;2022-09-09T02:44:56;15.90;57.00
74364;DHT22;62797;49.740;10.154;2022-09-09T02:47:47;15.90;56.20
74364;DHT22;62797;49.740;10.154;2022-09-09T02:58:11;15.90;56.30
74364;DHT22;62797;49.740;10.154;2022-09-09T03:00:38;16.00;55.80
74364;DHT22;62797;49.740;10.154;2022-09-09T03:03:06;16.00;56.40
74364;DHT22;62797;49.740;10.154;2022-09-09T03:05:32;15.90;56.60
74364;DHT22;62797;49.740;10.154;2022-09-09T03:07:58;15.90;56.70
74364;DHT22;62797;49.740;10.154;2022-09-09T03:10:23;15.90;57.20
74364;DHT22;62797;49.740;10.154;2022-09-09T03:12:49;15.90;57.00
74364;DHT22;62797;49.740;10.154;2022-09-09T03:15:15;16.00;57.70
74364;DHT22;62797;49.740;10.154;2022-09-09T03:17:41;16.00;56.60
74364;DHT22;62797;49.740;10.154;2022-09-09T03:20:07;16.00;57.20
74364;DHT22;62797;49.740;10.154;2022-09-09T03:22:34;16.00;56.20
74364;DHT22;62797;49.740;10.154;2022-09-09T03:25:00;16.00;57.20
74364;DHT22;62797;49.740;10.154;2022-09-09T03:27:25;16.10;55.50
74364;DHT22;62797;49.740;10.154;2022-09-09T03:29:51;16.10;55.80
74364;DHT22;62797;49.740;10.154;2022-09-09T03:32:18;16.10;56.30
74364;DHT22;62797;49.740;10.154;2022-09-09T03:34:44;16.10;56.50
74364;DHT22;62797;49.740;10.154;2022-09-09T03:37:10;16.10;55.60
74364;DHT22;62797;49.740;10.154;2022-09-09T03:39:35;16.10;56.00
74364;DHT22;62797;49.740;10.154;2022-09-09T03:42:01;16.10;56.20
74364;DHT22;62797;49.740;10.154;2022-09-09T03:44:30;16.10;56.30
74364;DHT22;62797;49.740;10.154;2022-09-09T03:46:56;16.10;57.10
74364;DHT22;62797;49.740;10.154;2022-09-09T03:49:21;16.10;55.70
74364;DHT22;62797;49.740;10.154;2022-09-09T03:51:48;16.10;54.90
74364;DHT22;62797;49.740;10.154;2022-09-09T03:54:13;16.10;55.40
74364;DHT22;62797;49.740;10.154;2022-09-09T03:56:39;16.10;56.10
74364;DHT22;62797;49.740;10.154;2022-09-09T03:59:07;16.10;55.30
74364;DHT22;62797;49.740;10.154;2022-09-09T04:01:34;16.10;56.00
74364;DHT22;62797;49.740;10.154;2022-09-09T04:04:00;16.00;56.80
74364;DHT22;62797;49.740;10.154;2022-09-09T04:06:26;16.00;57.20
74364;DHT22;62797;49.740;10.154;2022-09-09T04:08:52;16.10;55.70
74364;DHT22;62797;49.740;10.154;2022-09-09T04:11:18;16.10;55.10
74364;DHT22;62797;49.740;10.154;2022-09-09T04:13:44;16.10;53.90
74364;DHT22;62797;49.740;10.154;2022-09-09T04:16:10;16.10;54.30
74364;DHT22;62797;49.740;10.154;2022-09-09T04:18:37;16.10;55.70
74364;DHT22;62797;49.740;10.154;2022-09-09T04:21:03;16.10;55.70
74364;DHT22;62797;49.740;10.154;2022-09-09T04:23:29;16.10;54.50
74364;DHT22;62797;49.740;10.154;2022-09-09T04:25:56;16.10;53.50
74364;DHT22;62797;49.740;10.154;2022-09-09T04:28:24;16.10;53.30
74364;DHT22;62797;49.740;10.154;2022-09-09T04:30:50;16.10;52.90
74364;DHT22;62797;49.740;10.154;2022-09-09T04:33:17;16.10;53.50
74364;DHT22;62797;49.740;10.154;2022-09-09T04:35:48;16.20;53.90
74364;DHT22;62797;49.740;10.154;2022-09-09T04:38:16;16.20;51.50
74364;DHT22;62797;49.740;10.154;2022-09-09T04:40:45;16.20;52.90
74364;DHT22;62797;49.740;10.154;2022-09-09T04:43:11;16.20;51.50
74364;DHT22;62797;49.740;10.154;2022-09-09T04:45:37;16.30;51.90
74364;DHT22;62797;49.740;10.154;2022-09-09T04:48:03;16.30;52.10
74364;DHT22;62797;49.740;10.154;2022-09-09T04:50:29;16.20;55.30
74364;DHT22;62797;49.740;10.154;2022-09-09T04:52:54;16.20;55.30
74364;DHT22;62797;49.740;10.154;2022-09-09T04:55:20;16.10;56.40
74364;DHT22;62797;49.740;10.154;2022-09-09T04:57:45;16.00;56.60
74364;DHT22;62797;49.740;10.154;2022-09-09T05:00:12;15.90;56.70
74364;DHT22;62797;49.740;10.154;2022-09-09T05:02:38;16.00;56.60
74364;DHT22;62797;49.740;10.154;2022-09-09T05:05:05;15.90;56.10
74364;DHT22;62797;49.740;10.154;2022-09-09T05:07:31;15.80;55.30
74364;DHT22;62797;49.740;10.154;2022-09-09T05:09:57;15.80;55.70
74364;DHT22;62797;49.740;10.154;2022-09-09T05:12:23;15.80;55.10
74364;DHT22;62797;49.740;10.154;2022-09-09T05:14:51;15.70;55.50
74364;DHT22;62797;49.740;10.154;2022-09-09T05:17:17;15.70;56.50
74364;DHT22;62797;49.740;10.154;2022-09-09T05:19:43;15.70;56.60
74364;DHT22;62797;49.740;10.154;2022-09-09T05:22:09;15.70;57.30
74364;DHT22;62797;49.740;10.154;2022-09-09T05:24:35;15.80;59.00
74364;DHT22;62797;49.740;10.154;2022-09-09T05:27:02;15.90;58.20
74364;DHT22;62797;49.740;10.154;2022-09-09T05:29:28;15.90;58.70
74364;DHT22;62797;49.740;10.154;2022-09-09T05:31:54;16.00;57.00
74364;DHT22;62797;49.740;10.154;2022-09-09T05:34:19;16.20;57.00
74364;DHT22;62797;49.740;10.154;2022-09-09T05:36:46;16.20;58.00
74364;DHT22;62797;49.740;10.154;2022-09-09T05:39:12;16.30;58.20
74364;DHT22;62797;49.740;10.154;2022-09-09T05:41:37;16.30;57.20
74364;DHT22;62797;49.740;10.154;2022-09-09T05:44:03;16.40;57.10
74364;DHT22;62797;49.740;10.154;2022-09-09T05:46:29;16.50;57.10
74364;DHT22;62797;49.740;10.154;2022-09-09T05:48:54;16.50;56.20
74364;DHT22;62797;49.740;10.154;2022-09-09T05:51:26;16.60;55.80
74364;DHT22;62797;49.740;10.154;2022-09-09T05:53:52;16.70;55.90
74364;DHT22;62797;49.740;10.154;2022-09-09T05:56:23;16.80;55.50
74364;DHT22;62797;49.740;10.154;2022-09-09T05:58:50;16.90;54.50
74364;DHT22;62797;49.740;10.154;2022-09-09T06:01:18;17.00;53.70
74364;DHT22;62797;49.740;10.154;2022-09-09T06:03:45;17.00;51.80
74364;DHT22;62797;49.740;10.154;2022-09-09T06:06:13;17.00;50.60
74364;DHT22;62797;49.740;10.154;2022-09-09T06:08:41;17.00;49.90
74364;DHT22;62797;49.740;10.154;2022-09-09T06:11:11;17.00;50.40
74364;DHT22;62797;49.740;10.154;2022-09-09T06:13:38;17.00;49.50
74364;DHT22;62797;49.740;10.154;2022-09-09T06:16:08;17.10;48.20
74364;DHT22;62797;49.740;10.154;2022-09-09T06:18:33;17.10;48.50
74364;DHT22;62797;49.740;10.154;2022-09-09T06:21:01;17.20;48.20
74364;DHT22;62797;49.740;10.154;2022-09-09T06:23:28;17.30;46.70
74364;DHT22;62797;49.740;10.154;2022-09-09T06:26:05;17.40;45.80
74364;DHT22;62797;49.740;10.154;2022-09-09T06:28:32;17.50;45.00
74364;DHT22;62797;49.740;10.154;2022-09-09T06:31:02;17.60;44.90
74364;DHT22;62797;49.740;10.154;2022-09-09T06:33:34;17.70;45.30
74364;DHT22;62797;49.740;10.154;2022-09-09T06:36:01;17.80;44.60
74364;DHT22;62797;49.740;10.154;2022-09-09T06:38:27;17.80;43.60
74364;DHT22;62797;49.740;10.154;2022-09-09T06:40:57;17.80;42.30
74364;DHT22;62797;49.740;10.154;2022-09-09T06:43:25;17.80;41.50
74364;DHT22;62797;49.740;10.154;2022-09-09T06:45:57;17.80;41.50
74364;DHT22;62797;49.740;10.154;2022-09-09T06:48:23;17.80;42.40
74364;DHT22;62797;49.740;10.154;2022-09-09T06:50:59;17.80;42.70
74364;DHT22;62797;49.740;10.154;2022-09-09T06:53:25;17.70;43.10
74364;DHT22;62797;49.740;10.154;2022-09-09T06:55:51;17.80;42.20
74364;DHT22;62797;49.740;10.154;2022-09-09T06:58:16;17.80;40.80
74364;DHT22;62797;49.740;10.154;2022-09-09T07:00:42;17.90;41.20
74364;DHT22;62797;49.740;10.154;2022-09-09T07:03:09;18.00;39.80
74364;DHT22;62797;49.740;10.154;2022-09-09T07:05:35;18.00;40.40
74364;DHT22;62797;49.740;10.154;2022-09-09T07:08:01;18.10;41.20
74364;DHT22;62797;49.740;10.154;2022-09-09T07:10:27;18.20;40.70
74364;DHT22;62797;49.740;10.154;2022-09-09T07:12:53;18.30;39.90
74364;DHT22;62797;49.740;10.154;2022-09-09T07:15:18;18.40;40.50
74364;DHT22;62797;49.740;10.154;2022-09-09T07:17:44;18.40;39.50
74364;DHT22;62797;49.740;10.154;2022-09-09T07:20:10;18.30;39.00
74364;DHT22;62797;49.740;10.154;2022-09-09T07:22:37;18.30;39.70
74364;DHT22;62797;49.740;10.154;2022-09-09T07:25:03;18.30;38.30
74364;DHT22;62797;49.740;10.154;2022-09-09T07:27:28;18.30;38.40
74364;DHT22;62797;49.740;10.154;2022-09-09T07:29:55;18.40;38.80
74364;DHT22;62797;49.740;10.154;2022-09-09T07:32:20;18.40;38.40
74364;DHT22;62797;49.740;10.154;2022-09-09T07:34:46;18.50;38.00
74364;DHT22;62797;49.740;10.154;2022-09-09T07:37:12;18.50;37.80
74364;DHT22;62797;49.740;10.154;2022-09-09T07:39:39;18.50;38.10
74364;DHT22;62797;49.740;10.154;2022-09-09T07:42:05;18.50;38.00
74364;DHT22;62797;49.740;10.154;2022-09-09T07:44:31;18.50;38.00
74364;DHT22;62797;49.740;10.154;2022-09-09T07:47:00;18.50;37.50
74364;DHT22;62797;49.740;10.154;2022-09-09T07:49:26;18.70;37.60
74364;DHT22;62797;49.740;10.154;2022-09-09T07:51:51;18.70;36.70
74364;DHT22;62797;49.740;10.154;2022-09-09T07:54:18;18.70;36.80
74364;DHT22;62797;49.740;10.154;2022-09-09T07:56:46;18.80;36.30
74364;DHT22;62797;49.740;10.154;2022-09-09T07:59:12;18.80;36.60
74364;DHT22;62797;49.740;10.154;2022-09-09T08:01:42;18.80;36.20
74364;DHT22;62797;49.740;10.154;2022-09-09T08:04:14;18.80;36.20
74364;DHT22;62797;49.740;10.154;2022-09-09T08:06:43;18.90;35.80
74364;DHT22;62797;49.740;10.154;2022-09-09T08:09:10;18.90;35.80
74364;DHT22;62797;49.740;10.154;2022-09-09T08:11:35;18.80;35.80
74364;DHT22;62797;49.740;10.154;2022-09-09T08:14:02;18.80;36.20
74364;DHT22;62797;49.740;10.154;2022-09-09T08:16:30;18.80;36.90
74364;DHT22;62797;49.740;10.154;2022-09-09T08:18:57;19.00;35.90
74364;DHT22;62797;49.740;10.154;2022-09-09T08:21:28;19.10;36.00
74364;DHT22;62797;49.740;10.154;2022-09-09T08:23:55;19.20;35.90
74364;DHT22;62797;49.740;10.154;2022-09-09T08:26:26;19.40;35.40
74364;DHT22;62797;49.740;10.154;2022-09-09T08:28:54;19.40;34.20
74364;DHT22;62797;49.740;10.154;2022-09-09T08:31:23;19.50;33.70
74364;DHT22;62797;49.740;10.154;2022-09-09T08:33:50;19.50;33.60
74364;DHT22;62797;49.740;10.154;2022-09-09T08:36:21;19.60;33.10
74364;DHT22;62797;49.740;10.154;2022-09-09T08:38:48;19.60;33.30
74364;DHT22;62797;49.740;10.154;2022-09-09T08:47:13;19.60;34.00
74364;DHT22;62797;49.740;10.154;2022-09-09T08:50:13;19.60;32.70
74364;DHT22;62797;49.740;10.154;2022-09-09T08:53:04;19.60;32.50
74364;DHT22;62797;49.740;10.154;2022-09-09T08:55:51;19.70;33.10
74364;DHT22;62797;49.740;10.154;2022-09-09T08:58:33;19.80;32.60
74364;DHT22;62797;49.740;10.154;2022-09-09T09:11:54;20.00;33.30
74364;DHT22;62797;49.740;10.154;2022-09-09T09:14:23;20.00;32.50
74364;DHT22;62797;49.740;10.154;2022-09-09T09:17:10;19.90;33.20
74364;DHT22;62797;49.740;10.154;2022-09-09T09:19:39;19.80;33.40
74364;DHT22;62797;49.740;10.154;2022-09-09T09:24:51;19.90;34.20
74364;DHT22;62797;49.740;10.154;2022-09-09T09:27:31;19.90;33.50
74364;DHT22;62797;49.740;10.154;2022-09-09T09:29:58;19.90;33.10
74364;DHT22;62797;49.740;10.154;2022-09-09T09:32:27;20.00;33.00
74364;DHT22;62797;49.740;10.154;2022-09-09T09:34:56;20.10;33.10
74364;DHT22;62797;49.740;10.154;2022-09-09T09:37:34;20.20;32.40
74364;DHT22;62797;49.740;10.154;2022-09-09T09:40:15;20.30;31.20
74364;DHT22;62797;49.740;10.154;2022-09-09T09:42:57;20.30;30.00
74364;DHT22;62797;49.740;10.154;2022-09-09T09:45:34;20.50;30.60
74364;DHT22;62797;49.740;10.154;2022-09-09T09:48:05;20.60;31.10
74364;DHT22;62797;49.740;10.154;2022-09-09T09:50:32;20.70;30.50
74364;DHT22;62797;49.740;10.154;2022-09-09T09:53:04;20.90;30.40
74364;DHT22;62797;49.740;10.154;2022-09-09T09:55:33;21.00;29.80
74364;DHT22;62797;49.740;10.154;2022-09-09T09:58:04;20.90;28.50
74364;DHT22;62797;49.740;10.154;2022-09-09T10:00:31;20.80;29.10
74364;DHT22;62797;49.740;10.154;2022-09-09T10:02:59;20.70;29.00
74364;DHT22;62797;49.740;10.154;2022-09-09T10:05:26;20.70;29.10
74364;DHT22;62797;49.740;10.154;2022-09-09T10:08:10;20.70;29.30
74364;DHT22;62797;49.740;10.154;2022-09-09T10:13:31;20.90;29.10
74364;DHT22;62797;49.740;10.154;2022-09-09T10:19:14;21.10;26.20
74364;DHT22;62797;49.740;10.154;2022-09-09T10:24:37;21.50;26.90
74364;DHT22;62797;49.740;10.154;2022-09-09T10:30:26;21.80;23.60
74364;DHT22;62797;49.740;10.154;2022-09-09T10:33:08;21.50;23.80
74364;DHT22;62797;49.740;10.154;2022-09-09T10:35:52;21.60;24.50
74364;DHT22;62797;49.740;10.154;2022-09-09T10:38:29;21.60;24.40
74364;DHT22;62797;49.740;10.154;2022-09-09T10:46:39;22.00;23.40
74364;DHT22;62797;49.740;10.154;2022-09-09T10:52:29;22.60;23.30
74364;DHT22;62797;49.740;10.154;2022-09-09T10:57:50;22.60;22.40
74364;DHT22;62797;49.740;10.154;2022-09-09T11:00:22;22.20;22.20
74364;DHT22;62797;49.740;10.154;2022-09-09T11:02:58;21.50;21.00
74364;DHT22;62797;49.740;10.154;2022-09-09T11:05:33;21.00;21.30
74364;DHT22;62797;49.740;10.154;2022-09-09T11:08:02;20.60;21.50
74364;DHT22;62797;49.740;10.154;2022-09-09T11:13:03;19.70;21.90
74364;DHT22;62797;49.740;10.154;2022-09-09T11:15:41;19.20;27.50
74364;DHT22;62797;49.740;10.154;2022-09-09T11:18:14;18.60;36.20
74364;DHT22;62797;49.740;10.154;2022-09-09T11:20:44;17.70;41.80
74364;DHT22;62797;49.740;10.154;2022-09-09T11:23:15;17.30;50.70
74364;DHT22;62797;49.740;10.154;2022-09-09T11:25:52;17.00;56.50
74364;DHT22;62797;49.740;10.154;2022-09-09T11:39:16;17.40;56.20
74364;DHT22;62797;49.740;10.154;2022-09-09T11:41:47;17.50;56.80
74364;DHT22;62797;49.740;10.154;2022-09-09T11:44:19;17.50;52.80
74364;DHT22;62797;49.740;10.154;2022-09-09T11:46:51;17.50;54.50
74364;DHT22;62797;49.740;10.154;2022-09-09T11:49:28;17.60;57.70
74364;DHT22;62797;49.740;10.154;2022-09-09T11:51:54;18.00;54.30
74364;DHT22;62797;49.740;10.154;2022-09-09T11:54:31;18.20;46.10
74364;DHT22;62797;49.740;10.154;2022-09-09T11:56:58;18.40;56.00
74364;DHT22;62797;49.740;10.154;2022-09-09T11:59:29;18.70;54.00
74364;DHT22;62797;49.740;10.154;2022-09-09T12:02:02;18.90;54.90
74364;DHT22;62797;49.740;10.154;2022-09-09T12:04:50;19.30;56.50
74364;DHT22;62797;49.740;10.154;2022-09-09T12:07:30;19.50;51.90
74364;DHT22;62797;49.740;10.154;2022-09-09T12:12:31;19.80;58.30
74364;DHT22;62797;49.740;10.154;2022-09-09T12:15:00;19.80;51.90
74364;DHT22;62797;49.740;10.154;2022-09-09T12:17:28;19.90;48.90
74364;DHT22;62797;49.740;10.154;2022-09-09T12:20:13;19.90;46.90
74364;DHT22;62797;49.740;10.154;2022-09-09T12:28:02;20.10;46.70
74364;DHT22;62797;49.740;10.154;2022-09-09T12:30:53;20.40;48.70
74364;DHT22;62797;49.740;10.154;2022-09-09T12:33:20;20.60;42.80
74364;DHT22;62797;49.740;10.154;2022-09-09T12:35:57;20.90;41.00
74364;DHT22;62797;49.740;10.154;2022-09-09T12:40:57;21.30;40.00
74364;DHT22;62797;49.740;10.154;2022-09-09T12:43:25;21.30;39.50
74364;DHT22;62797;49.740;10.154;2022-09-09T12:45:55;21.40;40.10
74364;DHT22;62797;49.740;10.154;2022-09-09T12:48:47;21.50;43.20
74364;DHT22;62797;49.740;10.154;2022-09-09T12:51:21;21.60;41.00
74364;DHT22;62797;49.740;10.154;2022-09-09T12:53:50;21.80;37.90
74364;DHT22;62797;49.740;10.154;2022-09-09T12:56:24;21.50;34.90
74364;DHT22;62797;49.740;10.154;2022-09-09T12:58:52;21.50;34.90
74364;DHT22;62797;49.740;10.154;2022-09-09T13:01:30;21.70;36.20
74364;DHT22;62797;49.740;10.154;2022-09-09T13:03:56;22.00;36.40
74364;DHT22;62797;49.740;10.154;2022-09-09T13:06:29;22.50;37.00
74364;DHT22;62797;49.740;10.154;2022-09-09T13:08:58;22.80;35.20
74364;DHT22;62797;49.740;10.154;2022-09-09T13:11:37;23.00;32.70
74364;DHT22;62797;49.740;10.154;2022-09-09T13:14:04;23.20;29.40
74364;DHT22;62797;49.740;10.154;2022-09-09T13:16:35;23.00;28.50
74364;DHT22;62797;49.740;10.154;2022-09-09T13:19:09;22.70;29.20
74364;DHT22;62797;49.740;10.154;2022-09-09T13:21:39;22.50;30.20
74364;DHT22;62797;49.740;10.154;2022-09-09T13:24:07;22.30;29.70
74364;DHT22;62797;49.740;10.154;2022-09-09T13:26:55;22.20;29.50
74364;DHT22;62797;49.740;10.154;2022-09-09T13:29:21;22.20;29.30
74364;DHT22;62797;49.740;10.154;2022-09-09T13:31:48;22.10;29.60
74364;DHT22;62797;49.740;10.154;2022-09-09T13:34:34;21.90;29.80
74364;DHT22;62797;49.740;10.154;2022-09-09T13:37:05;21.90;30.30
74364;DHT22;62797;49.740;10.154;2022-09-09T13:39:34;21.80;31.30
74364;DHT22;62797;49.740;10.154;2022-09-09T13:42:00;22.00;30.80
74364;DHT22;62797;49.740;10.154;2022-09-09T13:44:36;22.10;29.90
74364;DHT22;62797;49.740;10.154;2022-09-09T13:47:19;22.20;29.20
74364;DHT22;62797;49.740;10.154;2022-09-09T13:49:45;22.20;28.40
74364;DHT22;62797;49.740;10.154;2022-09-09T13:52:16;22.10;29.60
74364;DHT22;62797;49.740;10.154;2022-09-09T13:54:43;22.10;28.70
74364;DHT22;62797;49.740;10.154;2022-09-09T13:57:17;22.10;29.10
74364;DHT22;62797;49.740;10.154;2022-09-09T13:59:44;22.20;29.50
74364;DHT22;62797;49.740;10.154;2022-09-09T14:02:10;22.20;27.50
74364;DHT22;62797;49.740;10.154;2022-09-09T14:04:35;22.10;27.70
74364;DHT22;62797;49.740;10.154;2022-09-09T14:07:01;22.10;27.70
74364;DHT22;62797;49.740;10.154;2022-09-09T14:09:27;22.00;27.30
74364;DHT22;62797;49.740;10.154;2022-09-09T14:11:52;22.00;28.40
74364;DHT22;62797;49.740;10.154;2022-09-09T14:14:20;22.00;27.90
74364;DHT22;62797;49.740;10.154;2022-09-09T14:16:46;21.90;27.30
74364;DHT22;62797;49.740;10.154;2022-09-09T14:19:12;21.80;27.20
74364;DHT22;62797;49.740;10.154;2022-09-09T14:21:37;21.80;27.90
74364;DHT22;62797;49.740;10.154;2022-09-09T14:24:04;21.70;26.60
74364;DHT22;62797;49.740;10.154;2022-09-09T14:26:30;21.60;27.10
74364;DHT22;62797;49.740;10.154;2022-09-09T14:28:56;21.60;26.90
74364;DHT22;62797;49.740;10.154;2022-09-09T14:31:25;21.60;27.00
74364;DHT22;62797;49.740;10.154;2022-09-09T14:33:50;21.70;26.40
74364;DHT22;62797;49.740;10.154;2022-09-09T14:36:16;21.70;25.90
74364;DHT22;62797;49.740;10.154;2022-09-09T14:38:42;21.70;26.20
74364;DHT22;62797;49.740;10.154;2022-09-09T14:41:12;21.70;26.50
74364;DHT22;62797;49.740;10.154;2022-09-09T14:43:38;21.70;26.10
74364;DHT22;62797;49.740;10.154;2022-09-09T14:46:09;21.80;26.20
74364;DHT22;62797;49.740;10.154;2022-09-09T14:48:35;21.80;26.80
74364;DHT22;62797;49.740;10.154;2022-09-09T14:51:13;21.80;26.50
74364;DHT22;62797;49.740;10.154;2022-09-09T14:53:40;21.90;26.60
74364;DHT22;62797;49.740;10.154;2022-09-09T14:56:18;22.10;26.20
74364;DHT22;62797;49.740;10.154;2022-09-09T14:58:45;22.20;25.40
74364;DHT22;62797;49.740;10.154;2022-09-09T15:01:13;22.00;25.00
74364;DHT22;62797;49.740;10.154;2022-09-09T15:03:41;21.90;25.10
74364;DHT22;62797;49.740;10.154;2022-09-09T15:06:12;21.90;25.70
74364;DHT22;62797;49.740;10.154;2022-09-09T15:08:40;21.80;25.90
74364;DHT22;62797;49.740;10.154;2022-09-09T15:11:07;21.70;26.30
74364;DHT22;62797;49.740;10.154;2022-09-09T15:13:33;21.70;26.00
74364;DHT22;62797;49.740;10.154;2022-09-09T15:18:34;21.40;27.10
74364;DHT22;62797;49.740;10.154;2022-09-09T15:21:04;21.20;27.40
74364;DHT22;62797;49.740;10.154;2022-09-09T15:23:35;21.10;29.90
74364;DHT22;62797;49.740;10.154;2022-09-09T15:26:01;20.70;30.80
74364;DHT22;62797;49.740;10.154;2022-09-09T15:28:27;20.30;33.60
74364;DHT22;62797;49.740;10.154;2022-09-09T15:30:54;19.90;36.90
74364;DHT22;62797;49.740;10.154;2022-09-09T15:33:21;19.70;38.10
74364;DHT22;62797;49.740;10.154;2022-09-09T15:35:47;20.20;38.60
74364;DHT22;62797;49.740;10.154;2022-09-09T15:38:13;20.40;35.40
74364;DHT22;62797;49.740;10.154;2022-09-09T15:40:40;20.40;37.90
74364;DHT22;62797;49.740;10.154;2022-09-09T15:43:06;20.50;35.90
74364;DHT22;62797;49.740;10.154;2022-09-09T15:45:33;20.40;34.70
74364;DHT22;62797;49.740;10.154;2022-09-09T15:48:00;20.40;33.90
74364;DHT22;62797;49.740;10.154;2022-09-09T15:50:26;20.60;35.10
74364;DHT22;62797;49.740;10.154;2022-09-09T15:52:51;21.30;34.00
74364;DHT22;62797;49.740;10.154;2022-09-09T15:55:18;21.90;33.50
74364;DHT22;62797;49.740;10.154;2022-09-09T15:57:45;22.30;32.60
74364;DHT22;62797;49.740;10.154;2022-09-09T16:00:12;22.70;29.20
74364;DHT22;62797;49.740;10.154;2022-09-09T16:02:38;22.90;26.80
74364;DHT22;62797;49.740;10.154;2022-09-09T16:05:04;23.10;27.20
74364;DHT22;62797;49.740;10.154;2022-09-09T16:07:30;23.20;26.90
74364;DHT22;62797;49.740;10.154;2022-09-09T16:09:55;23.60;26.70
74364;DHT22;62797;49.740;10.154;2022-09-09T16:12:21;23.90;26.20
74364;DHT22;62797;49.740;10.154;2022-09-09T16:14:47;23.90;24.70
74364;DHT22;62797;49.740;10.154;2022-09-09T16:17:12;23.90;23.90
74364;DHT22;62797;49.740;10.154;2022-09-09T16:19:39;23.90;24.90
74364;DHT22;62797;49.740;10.154;2022-09-09T16:22:05;24.00;25.00
74364;DHT22;62797;49.740;10.154;2022-09-09T16:24:32;24.10;24.00
74364;DHT22;62797;49.740;10.154;2022-09-09T16:26:57;23.70;23.80
74364;DHT22;62797;49.740;10.154;2022-09-09T16:29:23;23.70;24.70
74364;DHT22;62797;49.740;10.154;2022-09-09T16:31:50;23.70;23.80
74364;DHT22;62797;49.740;10.154;2022-09-09T16:34:16;23.50;24.20
74364;DHT22;62797;49.740;10.154;2022-09-09T16:36:43;23.30;24.80
74364;DHT22;62797;49.740;10.154;2022-09-09T16:39:11;22.90;25.00
74364;DHT22;62797;49.740;10.154;2022-09-09T16:41:38;22.70;25.60
74364;DHT22;62797;49.740;10.154;2022-09-09T16:44:06;22.40;26.00
74364;DHT22;62797;49.740;10.154;2022-09-09T16:46:35;22.10;26.60
74364;DHT22;62797;49.740;10.154;2022-09-09T16:49:02;21.70;27.50
74364;DHT22;62797;49.740;10.154;2022-09-09T16:51:31;21.50;27.80
74364;DHT22;62797;49.740;10.154;2022-09-09T16:53:59;21.20;28.70
74364;DHT22;62797;49.740;10.154;2022-09-09T16:56:28;21.00;28.70
74364;DHT22;62797;49.740;10.154;2022-09-09T16:58:56;20.80;28.80
74364;DHT22;62797;49.740;10.154;2022-09-09T17:01:24;20.50;29.30
74364;DHT22;62797;49.740;10.154;2022-09-09T17:03:56;20.50;30.00
74364;DHT22;62797;49.740;10.154;2022-09-09T17:06:22;20.30;29.60
74364;DHT22;62797;49.740;10.154;2022-09-09T17:08:54;20.30;30.00
74364;DHT22;62797;49.740;10.154;2022-09-09T17:11:20;20.10;30.70
74364;DHT22;62797;49.740;10.154;2022-09-09T17:13:46;20.00;31.10
74364;DHT22;62797;49.740;10.154;2022-09-09T17:16:12;19.90;31.10